createdAt,value
2019-01-13T00:01:53.992Z,9.20
2019-01-13T00:04:22.599Z,9.00
2019-01-13T00:06:51.185Z,7.70
2019-01-13T00:09:19.673Z,9.10
2019-01-13T00:11:48.233Z,7.60
2019-01-13T00:14:16.588Z,6.90
2019-01-13T00:16:45.158Z,7.20
2019-01-13T00:19:13.599Z,7.00
2019-01-13T00:21:42.430Z,7.83
2019-01-13T00:24:12.863Z,7.13
2019-01-13T00:26:44.521Z,7.40
2019-01-13T00:29:13.117Z,7.17
2019-01-13T00:31:41.857Z,7.07
2019-01-13T00:34:10.498Z,7.50
2019-01-13T00:36:39.110Z,7.13
2019-01-13T00:39:10.542Z,6.80
2019-01-13T00:41:39.081Z,7.87
2019-01-13T00:44:07.658Z,7.53
2019-01-13T00:46:36.262Z,7.23
2019-01-13T00:49:04.858Z,6.87
2019-01-13T00:51:33.421Z,6.23
2019-01-13T00:54:01.824Z,6.90
2019-01-13T00:56:30.313Z,7.47
2019-01-13T00:58:58.646Z,7.87
2019-01-13T01:01:27.286Z,7.97
2019-01-13T01:03:55.988Z,7.40
2019-01-13T01:06:24.817Z,6.93
2019-01-13T01:08:53.777Z,6.70
2019-01-13T01:11:22.368Z,7.17
2019-01-13T01:13:50.941Z,6.63
2019-01-13T01:16:19.344Z,6.83
2019-01-13T01:18:47.838Z,6.20
2019-01-13T01:21:16.218Z,5.70
2019-01-13T01:23:44.745Z,5.00
2019-01-13T01:26:13.341Z,5.23
2019-01-13T01:28:42.113Z,5.30
2019-01-13T01:31:11.592Z,4.70
2019-01-13T01:33:40.221Z,4.90
2019-01-13T01:36:09.913Z,3.83
2019-01-13T01:38:38.799Z,4.50
2019-01-13T01:41:07.283Z,4.40
2019-01-13T01:43:35.628Z,4.20
2019-01-13T01:46:04.298Z,4.57
2019-01-13T01:48:32.626Z,3.47
2019-01-13T01:51:01.150Z,4.77
2019-01-13T01:53:29.717Z,3.90
2019-01-13T01:55:58.890Z,3.63
2019-01-13T01:58:27.605Z,3.70
2019-01-13T02:00:56.174Z,2.97
2019-01-13T02:03:24.508Z,3.40
2019-01-13T02:05:52.936Z,3.40
2019-01-13T02:08:21.344Z,3.67
2019-01-13T02:10:49.937Z,4.13
2019-01-13T02:13:18.445Z,3.53
2019-01-13T02:15:46.953Z,3.60
2019-01-13T02:18:15.353Z,3.40
2019-01-13T02:20:43.826Z,3.80
2019-01-13T02:23:12.416Z,3.52
2019-01-13T02:25:40.745Z,3.50
2019-01-13T02:28:09.071Z,3.47
2019-01-13T02:30:37.577Z,3.67
2019-01-13T02:33:05.922Z,3.97
2019-01-13T02:35:34.241Z,4.50
2019-01-13T02:38:02.801Z,4.20
2019-01-13T02:40:31.101Z,5.07
2019-01-13T02:42:59.419Z,5.43
2019-01-13T02:45:28.500Z,6.07
2019-01-13T02:47:56.810Z,6.53
2019-01-13T02:50:25.143Z,5.90
2019-01-13T02:52:55.059Z,6.77
2019-01-13T02:55:23.560Z,6.33
2019-01-13T02:57:52.045Z,7.63
2019-01-13T03:00:25.864Z,6.70
2019-01-13T03:02:54.713Z,7.63
2019-01-13T03:05:23.389Z,7.77
2019-01-13T03:07:51.988Z,7.67
2019-01-13T03:10:22.613Z,6.37
2019-01-13T03:12:51.827Z,8.43
2019-01-13T03:15:21.754Z,8.27
2019-01-13T03:17:50.943Z,6.97
2019-01-13T03:20:19.552Z,8.10
2019-01-13T03:22:48.157Z,9.00
2019-01-13T03:25:18.502Z,7.97
2019-01-13T03:27:46.827Z,7.70
2019-01-13T03:30:17.770Z,8.10
2019-01-13T03:32:46.563Z,7.67
2019-01-13T03:35:15.223Z,7.90
2019-01-13T03:37:43.850Z,7.40
2019-01-13T03:40:25.713Z,8.03
2019-01-13T03:42:54.822Z,7.80
2019-01-13T03:45:23.337Z,7.90
2019-01-13T03:47:51.973Z,10.40
2019-01-13T03:50:22.300Z,9.67
2019-01-13T03:52:53.104Z,16.03
2019-01-13T03:55:23.988Z,12.23
2019-01-13T03:57:52.526Z,11.67
2019-01-13T04:00:22.841Z,9.97
2019-01-13T04:02:51.536Z,10.47
2019-01-13T04:05:20.098Z,9.60
2019-01-13T04:07:48.575Z,9.97
2019-01-13T04:10:17.505Z,8.20
2019-01-13T04:12:46.088Z,7.77
2019-01-13T04:16:01.134Z,7.43
2019-01-13T04:18:29.680Z,7.37
2019-01-13T04:20:58.288Z,7.43
2019-01-13T04:23:26.916Z,7.90
2019-01-13T04:25:55.305Z,8.63
2019-01-13T04:28:23.708Z,8.30
2019-01-13T04:30:52.477Z,8.37
2019-01-13T04:33:20.784Z,7.67
2019-01-13T04:35:49.442Z,8.03
2019-01-13T04:38:17.845Z,9.63
2019-01-13T04:40:46.215Z,8.03
2019-01-13T04:43:14.597Z,8.53
2019-01-13T04:45:43.062Z,8.80
2019-01-13T04:48:11.418Z,7.83
2019-01-13T04:50:39.914Z,8.63
2019-01-13T04:53:08.415Z,7.83
2019-01-13T04:55:36.823Z,7.33
2019-01-13T04:58:05.507Z,7.90
2019-01-13T05:00:33.897Z,7.40
2019-01-13T05:03:02.477Z,7.93
2019-01-13T05:05:50.541Z,7.23
2019-01-13T05:08:19.085Z,6.87
2019-01-13T05:10:47.569Z,7.67
2019-01-13T05:13:16.053Z,6.80
2019-01-13T05:15:44.369Z,7.10
2019-01-13T05:18:12.835Z,6.80
2019-01-13T05:20:41.333Z,7.93
2019-01-13T05:23:10.906Z,9.57
2019-01-13T05:25:39.265Z,9.47
2019-01-13T05:28:07.676Z,8.37
2019-01-13T05:30:36.472Z,9.23
2019-01-13T05:33:04.848Z,7.77
2019-01-13T05:35:33.260Z,8.07
2019-01-13T05:38:01.580Z,7.40
2019-01-13T05:40:30.101Z,7.37
2019-01-13T05:42:58.509Z,6.93
2019-01-13T05:45:27.106Z,6.87
2019-01-13T05:47:55.669Z,6.67
2019-01-13T05:50:25.277Z,6.30
2019-01-13T05:52:54.329Z,6.67
2019-01-13T05:55:23.605Z,5.93
2019-01-13T05:57:52.041Z,7.17
2019-01-13T06:00:23.345Z,6.43
2019-01-13T06:02:51.849Z,6.80
2019-01-13T06:05:20.328Z,6.87
2019-01-13T06:07:48.856Z,7.63
2019-01-13T06:10:18.189Z,7.03
2019-01-13T06:12:46.866Z,7.60
2019-01-13T06:15:18.558Z,6.70
2019-01-13T06:17:47.027Z,7.43
2019-01-13T06:20:25.801Z,7.50
2019-01-13T06:22:54.367Z,7.83
2019-01-13T06:25:22.786Z,7.23
2019-01-13T06:27:51.508Z,8.07
2019-01-13T06:30:21.896Z,7.17
2019-01-13T06:32:50.601Z,7.13
2019-01-13T06:35:18.942Z,8.88
2019-01-13T06:37:47.829Z,7.63
2019-01-13T06:40:21.766Z,8.27
2019-01-13T06:42:50.283Z,8.03
2019-01-13T06:45:21.306Z,7.77
2019-01-13T06:47:49.881Z,8.23
2019-01-13T06:50:18.784Z,7.63
2019-01-13T06:52:48.021Z,7.90
2019-01-13T06:55:16.573Z,8.23
2019-01-13T06:57:44.985Z,7.93
2019-01-13T07:00:24.377Z,7.90
2019-01-13T07:02:53.057Z,9.00
2019-01-13T07:05:21.473Z,8.33
2019-01-13T07:07:50.066Z,7.70
2019-01-13T07:10:18.448Z,9.17
2019-01-13T07:12:47.008Z,9.78
2019-01-13T07:15:16.213Z,8.67
2019-01-13T07:17:44.813Z,8.27
2019-01-13T07:20:15.626Z,8.37
2019-01-13T07:22:44.342Z,9.03
2019-01-13T07:25:13.341Z,10.13
2019-01-13T07:27:41.717Z,9.80
2019-01-13T07:30:29.841Z,9.90
2019-01-13T07:32:58.355Z,11.17
2019-01-13T07:35:26.941Z,11.03
2019-01-13T07:37:55.360Z,10.27
2019-01-13T07:40:24.204Z,10.37
2019-01-13T07:42:53.532Z,12.47
2019-01-13T07:45:24.133Z,10.60
2019-01-13T07:47:52.677Z,11.17
2019-01-13T07:50:21.265Z,11.20
2019-01-13T07:52:49.796Z,11.07
2019-01-13T07:55:20.001Z,11.60
2019-01-13T07:57:49.696Z,11.07
2019-01-13T08:00:25.013Z,11.77
2019-01-13T08:02:53.782Z,12.53
2019-01-13T08:05:22.097Z,12.83
2019-01-13T08:07:50.626Z,13.20
2019-01-13T08:10:19.073Z,14.13
2019-01-13T08:12:47.584Z,14.87
2019-01-13T08:15:17.882Z,15.00
2019-01-13T08:17:46.549Z,16.57
2019-01-13T08:20:18.805Z,16.23
2019-01-13T08:22:47.413Z,16.47
2019-01-13T08:25:15.726Z,15.50
2019-01-13T08:27:44.870Z,15.30
2019-01-13T08:30:18.258Z,15.78
2019-01-13T08:32:47.025Z,16.10
2019-01-13T08:35:16.609Z,16.27
2019-01-13T08:37:45.515Z,14.83
2019-01-13T08:40:16.455Z,14.60
2019-01-13T08:42:44.870Z,14.33
2019-01-13T08:45:13.549Z,14.17
2019-01-13T08:47:41.978Z,15.00
2019-01-13T08:50:14.137Z,15.47
2019-01-13T08:52:42.569Z,14.40
2019-01-13T08:55:11.235Z,13.73
2019-01-13T08:57:40.221Z,15.10
2019-01-13T09:00:15.207Z,13.07
2019-01-13T09:02:43.842Z,11.63
2019-01-13T09:05:12.368Z,11.27
2019-01-13T09:07:40.949Z,12.58
2019-01-13T09:10:11.422Z,10.47
2019-01-13T09:12:39.845Z,10.30
2019-01-13T09:15:11.301Z,10.57
2019-01-13T09:17:39.692Z,11.73
2019-01-13T09:20:11.141Z,11.47
2019-01-13T09:22:39.553Z,11.60
2019-01-13T09:25:08.205Z,11.80
2019-01-13T09:27:36.606Z,13.80
2019-01-13T09:30:08.164Z,11.60
2019-01-13T09:32:39.481Z,11.83
2019-01-13T09:35:07.329Z,12.33
2019-01-13T09:37:36.118Z,13.93
2019-01-13T09:40:05.974Z,18.33
2019-01-13T09:42:34.421Z,18.43
2019-01-13T09:45:03.157Z,15.40
2019-01-13T09:47:31.974Z,14.90
2019-01-13T09:50:00.500Z,16.03
2019-01-13T09:52:28.991Z,17.10
2019-01-13T09:54:57.328Z,16.83
2019-01-13T09:57:25.765Z,18.20
2019-01-13T09:59:54.658Z,16.13
2019-01-13T10:02:23.507Z,16.93
2019-01-13T10:04:53.092Z,17.50
2019-01-13T10:07:21.438Z,17.37
2019-01-13T10:09:49.773Z,16.00
2019-01-13T10:12:18.246Z,14.97
2019-01-13T10:14:46.635Z,13.40
2019-01-13T10:17:15.445Z,11.70
2019-01-13T10:19:43.890Z,11.93
2019-01-13T10:22:12.309Z,10.00
2019-01-13T10:24:40.730Z,8.83
2019-01-13T10:27:09.381Z,9.60
2019-01-13T10:29:37.931Z,7.70
2019-01-13T10:32:06.489Z,11.77
2019-01-13T10:34:35.107Z,29.87
2019-01-13T10:37:03.529Z,38.27
2019-01-13T10:39:32.237Z,32.50
2019-01-13T10:42:00.764Z,40.37
2019-01-13T10:44:29.449Z,34.83
2019-01-13T10:46:58.322Z,29.93
2019-01-13T10:49:27.705Z,31.20
2019-01-13T10:51:56.221Z,32.07
2019-01-13T10:54:25.273Z,31.70
2019-01-13T10:56:53.991Z,30.77
2019-01-13T10:59:22.591Z,30.20
2019-01-13T11:01:51.161Z,29.53
2019-01-13T11:04:20.021Z,28.97
2019-01-13T11:06:48.333Z,29.87
2019-01-13T11:09:16.806Z,29.43
2019-01-13T11:11:45.245Z,27.70
2019-01-13T11:14:13.633Z,26.80
2019-01-13T11:16:42.162Z,28.13
2019-01-13T11:19:10.585Z,30.20
2019-01-13T11:21:39.224Z,38.50
2019-01-13T11:24:08.274Z,46.37
2019-01-13T11:26:37.017Z,39.77
2019-01-13T11:29:05.653Z,37.10
2019-01-13T11:31:35.351Z,40.13
2019-01-13T11:34:04.001Z,38.67
2019-01-13T11:36:32.324Z,27.87
2019-01-13T11:39:00.828Z,26.03
2019-01-13T11:41:29.754Z,29.00
2019-01-13T11:43:58.229Z,32.03
2019-01-13T11:46:26.565Z,31.43
2019-01-13T11:48:55.093Z,28.93
2019-01-13T11:51:23.510Z,28.97
2019-01-13T11:53:52.089Z,26.07
2019-01-13T11:56:20.489Z,21.90
2019-01-13T11:58:49.241Z,24.23
2019-01-13T12:01:19.081Z,23.10
2019-01-13T12:03:47.609Z,23.80
2019-01-13T12:06:18.349Z,26.70
2019-01-13T12:08:46.866Z,31.87
2019-01-13T12:11:15.853Z,31.50
2019-01-13T12:13:44.245Z,31.07
2019-01-13T12:16:12.661Z,28.53
2019-01-13T12:18:41.007Z,26.47
2019-01-13T12:21:09.521Z,28.63
2019-01-13T12:23:37.869Z,25.07
2019-01-13T12:26:06.429Z,24.20
2019-01-13T12:28:34.873Z,22.30
2019-01-13T12:31:03.609Z,22.23
2019-01-13T12:33:32.172Z,15.17
2019-01-13T12:36:00.741Z,10.43
2019-01-13T12:38:29.148Z,11.40
2019-01-13T12:40:57.629Z,13.53
2019-01-13T12:43:25.969Z,15.07
2019-01-13T12:45:55.551Z,13.87
2019-01-13T12:48:23.975Z,16.20
2019-01-13T12:50:52.734Z,14.83
2019-01-13T12:53:21.318Z,13.67
2019-01-13T12:55:50.035Z,17.40
2019-01-13T12:58:18.505Z,17.60
2019-01-13T13:00:49.289Z,14.23
2019-01-13T13:03:17.643Z,15.83
2019-01-13T13:05:46.141Z,13.23
2019-01-13T13:08:14.444Z,11.87
2019-01-13T13:10:46.628Z,12.90
2019-01-13T13:13:15.261Z,13.43
2019-01-13T13:15:43.842Z,13.13
2019-01-13T13:18:12.493Z,15.10
2019-01-13T13:20:41.157Z,15.47
2019-01-13T13:23:10.420Z,14.93
2019-01-13T13:25:40.520Z,16.40
2019-01-13T13:28:08.933Z,14.10
2019-01-13T13:30:37.333Z,14.23
2019-01-13T13:33:06.133Z,15.03
2019-01-13T13:35:39.633Z,15.00
2019-01-13T13:38:06.590Z,15.30
2019-01-13T13:40:35.272Z,16.07
2019-01-13T13:43:03.797Z,15.20
2019-01-13T13:45:32.260Z,17.13
2019-01-13T13:48:00.669Z,18.40
2019-01-13T13:50:29.181Z,18.43
2019-01-13T13:52:57.564Z,20.30
2019-01-13T13:55:26.269Z,19.23
2019-01-13T13:57:54.785Z,17.23
2019-01-13T14:00:28.991Z,16.00
2019-01-13T14:02:57.410Z,15.60
2019-01-13T14:05:26.358Z,16.83
2019-01-13T14:07:54.952Z,18.27
2019-01-13T14:10:26.544Z,17.83
2019-01-13T14:12:54.957Z,18.97
2019-01-13T14:15:23.716Z,19.30
2019-01-13T14:17:52.085Z,18.60
2019-01-13T14:20:20.730Z,18.70
2019-01-13T14:22:49.841Z,19.97
2019-01-13T14:25:18.238Z,17.47
2019-01-13T14:27:47.393Z,17.33
2019-01-13T14:30:21.694Z,16.37
2019-01-13T14:32:50.160Z,18.13
2019-01-13T14:35:18.787Z,20.95
2019-01-13T14:37:47.507Z,22.30
2019-01-13T14:40:18.095Z,24.83
2019-01-13T14:42:46.921Z,23.60
2019-01-13T14:45:17.473Z,22.83
2019-01-13T14:47:46.112Z,22.00
2019-01-13T14:50:18.720Z,21.47
2019-01-13T14:52:48.249Z,21.83
2019-01-13T14:55:17.081Z,18.17
2019-01-13T14:57:45.648Z,19.10
2019-01-13T15:00:25.641Z,19.27
2019-01-13T15:03:00.189Z,18.40
2019-01-13T15:05:44.951Z,20.40
2019-01-13T15:08:13.469Z,19.83
2019-01-13T15:10:41.974Z,21.60
2019-01-13T15:13:10.553Z,22.13
2019-01-13T15:15:38.882Z,22.10
2019-01-13T15:18:07.606Z,20.03
2019-01-13T15:20:36.071Z,19.57
2019-01-13T15:23:05.162Z,19.37
2019-01-13T15:25:33.699Z,18.87
2019-01-13T15:28:02.078Z,20.57
2019-01-13T15:30:35.178Z,21.47
2019-01-13T15:33:04.870Z,22.97
2019-01-13T15:35:33.427Z,24.97
2019-01-13T15:38:01.874Z,26.47
2019-01-13T15:40:30.410Z,26.60
2019-01-13T15:42:58.995Z,27.97
2019-01-13T15:45:27.673Z,26.70
2019-01-13T15:47:56.318Z,27.63
2019-01-13T15:50:27.269Z,28.07
2019-01-13T15:52:55.779Z,29.30
2019-01-13T15:55:24.442Z,29.10
2019-01-13T15:57:52.796Z,30.10
2019-01-13T16:00:26.567Z,30.20
2019-01-13T16:02:55.110Z,29.83
2019-01-13T16:05:23.610Z,27.97
2019-01-13T16:07:52.044Z,28.00
2019-01-13T16:10:21.918Z,30.83
2019-01-13T16:12:50.561Z,32.80
2019-01-13T16:15:19.156Z,31.80
2019-01-13T16:17:47.665Z,32.73
2019-01-13T16:20:27.693Z,36.80
2019-01-13T16:22:56.467Z,42.63
2019-01-13T16:25:25.141Z,43.00
2019-01-13T16:27:54.800Z,43.30
2019-01-13T16:30:24.568Z,48.42
2019-01-13T16:32:53.082Z,42.97
2019-01-13T16:35:21.635Z,45.17
2019-01-13T16:37:51.809Z,45.00
2019-01-13T16:40:22.137Z,48.13
2019-01-13T16:45:38.187Z,51.97
2019-01-13T16:48:07.529Z,53.97
2019-01-13T16:50:36.059Z,53.33
2019-01-13T16:53:05.945Z,62.07
2019-01-13T16:55:34.822Z,75.67
2019-01-13T16:58:04.456Z,71.93
2019-01-13T17:00:34.259Z,70.70
2019-01-13T17:03:02.869Z,76.17
2019-01-13T17:05:31.586Z,90.53
2019-01-13T17:07:59.905Z,88.33
2019-01-13T17:10:28.594Z,82.70
2019-01-13T17:12:57.066Z,100.63
2019-01-13T17:15:30.954Z,136.10
2019-01-13T17:17:59.364Z,115.30
2019-01-13T17:20:27.841Z,129.50
2019-01-13T17:22:56.348Z,130.13
2019-01-13T17:25:25.805Z,120.23
2019-01-13T17:27:56.793Z,114.13
2019-01-13T17:30:27.167Z,92.87
2019-01-13T17:32:55.854Z,93.93
2019-01-13T17:35:24.442Z,91.70
2019-01-13T17:37:52.976Z,90.53
2019-01-13T17:40:23.821Z,82.67
2019-01-13T17:43:06.007Z,70.43
2019-01-13T17:45:35.255Z,58.73
2019-01-13T17:48:05.089Z,70.53
2019-01-13T17:50:33.597Z,78.40
2019-01-13T17:53:02.129Z,77.97
2019-01-13T17:55:30.788Z,79.30
2019-01-13T17:57:59.702Z,74.83
2019-01-13T18:00:43.070Z,70.33
2019-01-13T18:03:13.058Z,82.13
2019-01-13T18:05:41.649Z,78.10
2019-01-13T18:08:10.115Z,93.97
2019-01-13T18:10:40.911Z,93.50
2019-01-13T18:13:09.555Z,76.30
2019-01-13T18:15:38.040Z,73.97
2019-01-13T18:18:06.757Z,62.77
2019-01-13T18:20:35.243Z,51.30
2019-01-13T18:23:03.675Z,56.83
2019-01-13T18:25:32.414Z,48.10
2019-01-13T18:28:00.821Z,53.07
2019-01-13T18:30:29.478Z,46.00
2019-01-13T18:32:58.013Z,52.13
2019-01-13T18:35:26.491Z,52.90
2019-01-13T18:37:55.113Z,52.03
2019-01-13T18:40:23.833Z,52.47
2019-01-13T18:42:52.253Z,47.90
2019-01-13T18:45:20.832Z,49.27
2019-01-13T18:47:49.446Z,48.17
2019-01-13T18:50:19.128Z,47.93
2019-01-13T18:52:50.737Z,52.87
2019-01-13T18:55:20.165Z,52.20
2019-01-13T18:57:48.750Z,49.43
2019-01-13T19:00:19.153Z,47.97
2019-01-13T19:02:47.669Z,48.53
2019-01-13T19:05:18.274Z,52.43
2019-01-13T19:07:46.977Z,52.83
2019-01-13T19:10:28.549Z,51.90
2019-01-13T19:13:01.462Z,75.17
2019-01-13T19:15:30.054Z,85.97
2019-01-13T19:17:58.915Z,52.97
2019-01-13T19:20:33.541Z,56.13
2019-01-13T19:23:07.781Z,59.43
2019-01-13T19:25:36.401Z,72.80
2019-01-13T19:28:05.356Z,62.40
2019-01-13T19:30:34.026Z,67.80
2019-01-13T19:33:02.543Z,68.40
2019-01-13T19:35:31.110Z,61.87
2019-01-13T19:37:59.528Z,57.23
2019-01-13T19:40:28.056Z,52.37
2019-01-13T19:42:56.372Z,59.00
2019-01-13T19:45:25.048Z,63.17
2019-01-13T19:47:53.365Z,58.80
2019-01-13T19:50:24.080Z,64.47
2019-01-13T19:52:53.561Z,60.70
2019-01-13T19:55:22.345Z,65.97
2019-01-13T19:57:51.086Z,57.17
2019-01-13T20:00:25.911Z,46.30
2019-01-13T20:02:54.719Z,54.30
2019-01-13T20:05:23.774Z,58.77
2019-01-13T20:07:52.466Z,38.17
2019-01-13T20:10:20.816Z,50.87
2019-01-13T20:12:49.489Z,35.57
2019-01-13T20:15:18.521Z,28.93
2019-01-13T20:17:47.137Z,28.50
2019-01-13T20:20:17.413Z,26.07
2019-01-13T20:22:46.598Z,27.90
2019-01-13T20:25:15.438Z,28.33
2019-01-13T20:27:44.496Z,20.93
2019-01-13T20:30:16.073Z,22.77
2019-01-13T20:32:58.645Z,24.37
2019-01-13T20:35:28.334Z,23.93
2019-01-13T20:37:56.869Z,24.47
2019-01-13T20:40:25.386Z,25.37
2019-01-13T20:42:53.900Z,26.85
2019-01-13T20:45:34.976Z,24.43
2019-01-13T20:48:05.141Z,28.83
2019-01-13T20:50:33.473Z,27.53
2019-01-13T20:53:02.224Z,34.73
2019-01-13T20:55:30.825Z,38.30
2019-01-13T20:57:59.567Z,30.07
2019-01-13T21:00:28.451Z,40.47
2019-01-13T21:02:57.201Z,39.67
2019-01-13T21:05:27.009Z,39.67
2019-01-13T21:07:55.991Z,32.10
2019-01-13T21:10:24.796Z,30.80
2019-01-13T21:12:53.544Z,28.03
2019-01-13T21:15:27.450Z,29.80
2019-01-13T21:17:57.708Z,32.40
2019-01-13T21:20:27.701Z,32.10
2019-01-13T21:22:56.113Z,35.33
2019-01-13T21:25:24.685Z,36.00
2019-01-13T21:27:54.603Z,37.20
2019-01-13T21:30:26.294Z,39.37
2019-01-13T21:32:55.152Z,39.67
2019-01-13T21:35:24.971Z,41.40
2019-01-13T21:37:53.997Z,41.67
2019-01-13T21:40:23.017Z,39.90
2019-01-13T21:42:51.896Z,35.07
2019-01-13T21:45:21.341Z,42.00
2019-01-13T21:47:49.905Z,49.23
2019-01-13T21:50:20.245Z,45.67
2019-01-13T21:52:48.953Z,47.47
2019-01-13T21:55:18.361Z,50.20
2019-01-13T21:57:47.177Z,50.47
2019-01-13T22:00:19.787Z,42.80
2019-01-13T22:02:48.530Z,48.70
2019-01-13T22:05:18.346Z,49.17
2019-01-13T22:07:47.077Z,46.77
2019-01-13T22:10:18.380Z,46.13
2019-01-13T22:12:47.154Z,49.37
2019-01-13T22:15:17.188Z,41.67
2019-01-13T22:17:45.688Z,48.60
2019-01-13T22:20:16.383Z,41.63
2019-01-13T22:22:45.275Z,42.35
2019-01-13T22:25:15.897Z,39.20
2019-01-13T22:27:44.552Z,44.10
2019-01-13T22:30:15.325Z,36.90
2019-01-13T22:32:43.945Z,38.77
2019-01-13T22:35:12.605Z,38.07
2019-01-13T22:37:42.492Z,34.17
2019-01-13T22:40:14.122Z,36.73
2019-01-13T22:42:42.525Z,38.28
2019-01-13T22:45:13.235Z,33.10
2019-01-13T22:47:41.614Z,34.77
2019-01-13T22:50:11.545Z,31.37
2019-01-13T22:52:40.041Z,34.07
2019-01-13T22:55:09.168Z,60.40
2019-01-13T22:57:37.672Z,52.57
2019-01-13T23:00:32.100Z,67.77
2019-01-13T23:03:01.133Z,38.43
2019-01-13T23:05:30.761Z,40.03
2019-01-13T23:07:59.250Z,40.97
2019-01-13T23:10:27.632Z,34.37
2019-01-13T23:12:57.049Z,27.53
2019-01-13T23:15:25.509Z,33.63
2019-01-13T23:17:53.821Z,32.37
2019-01-13T23:20:22.302Z,29.43
2019-01-13T23:22:50.642Z,28.43
2019-01-13T23:25:19.073Z,29.27
2019-01-13T23:27:48.614Z,28.27
2019-01-13T23:30:17.203Z,27.80
2019-01-13T23:32:45.713Z,27.13
2019-01-13T23:35:14.170Z,27.77
2019-01-13T23:37:42.578Z,31.57
2019-01-13T23:40:11.502Z,38.77
2019-01-13T23:42:39.814Z,47.78
2019-01-13T23:45:25.525Z,47.97
2019-01-13T23:47:53.857Z,53.87
2019-01-13T23:50:22.310Z,62.77
2019-01-13T23:52:50.778Z,53.53
2019-01-13T23:55:19.282Z,39.70
2019-01-13T23:57:47.775Z,21.63
